Waters, MI

10:59 PM EST on January 24, 2015 (GMT -0500)
National Weather Service | Change Station
CLOSE
Current Station
Personal Weather Station
Location: Gaylord, MI
Elevation: 1465 ft
Nearby Weather Stations

Elev 1465 ft 44.91 °N, 84.72 °W | Updated 1 minute ago

Overcast
Overcast
18.4 °F
Feels Like 7 °F
N
10.0
Wind Variable Wind from NNE
Gusts 14.0 mph

Today
High -- | Low -- °F
--% Chance of Precip.
Yesterday
High -- | Low -- °F
Precip. -- in
8:06 AM 5:35 PM
Waxing Crescent, 28% visible
Pressure 29.73 in
Visibility 10.0 miles
Clouds Mostly Cloudy 1700 ft
Windchill 7 °F
Dew Point 14 °F
Humidity 82%
Rainfall 0.00 in
Snow Depth Not available.
UV 0.0 out of 12
Pollen .10 out of 12
Air Quality Not available.
Flu Activity Not available.
METAR KGLR 250353Z AUTO VRB05KT 10SM BKN017 M09/M12 A2967 RMK AO2 SLP067 T10891117 $

More Conditions Fewer Conditions

Pressure 29.73 in
Visibility 10.0 miles
Clouds Mostly Cloudy 1700 ft
Windchill 7 °F
Dew Point 14 °F
Humidity 82%
Rainfall 0.00 in
Snow Depth Not available.
UV 0.0 out of 12
Pollen .10 out of 12
Air Quality Not available.
Flu Activity Not available.
METAR KGLR 250353Z AUTO VRB05KT 10SM BKN017 M09/M12 A2967 RMK AO2 SLP067 T10891117 $

More Conditions Fewer Conditions

Nowcast | as of 10:00 PM EST on January 24, 2015

At 11 PM...mostly cloudy. Temperature 16. North winds 7 mph. At 1 am...partly cloudy. Temperature 12. North winds 6 mph. At 3 am...partly cloudy. Temperature 9 above. North winds 7 mph. At 5 am...partly cloudy. Temperature 6 above. North winds 7 mph.

×

10-Day Weather Forecast

Almanac

Astronomy

Jan. 24, 2015 Rise Set
Actual Time
Civil Twilight
Nautical Twilight
Astronomical Twilight
Moon
Length of Visible Light
Length of Day
Tomorrow will be .
, % of the Moon is Illuminated

Today's Extremes

State Highs State Lows

Community

WunderPhotos

Upload Photos

1,789,825 photos uploaded!

WunderBlogs® & News

Nearby

Air Quality

  Air Quality AQ Index Pollutant
Not available.

Snow Depth

Station Depth Elevation

Earthquake Activity

City Distance Mag. Time & Date
Minimum magnitude displayed is 2.5.

Coastal Water Temperatures

Place Temperature

Nearby Weather Stations